createdAt,value
2019-05-01T00:00:16.765Z,16
2019-05-01T00:01:01.656Z,16
2019-05-01T00:02:01.911Z,12
2019-05-01T00:03:02.138Z,12
2019-05-01T00:04:02.300Z,12
2019-05-01T00:05:02.594Z,12
2019-05-01T00:06:01.870Z,12
2019-05-01T00:07:02.061Z,12
2019-05-01T00:08:02.298Z,6
2019-05-01T00:09:02.519Z,12
2019-05-01T00:10:01.813Z,12
2019-05-01T00:11:02.059Z,12
2019-05-01T00:12:01.758Z,12
2019-05-01T00:13:01.999Z,12
2019-05-01T00:14:02.212Z,15
2019-05-01T00:15:02.476Z,13
2019-05-01T00:16:02.341Z,13
2019-05-01T00:17:02.541Z,13
2019-05-01T00:18:01.799Z,13
2019-05-01T00:19:02.026Z,13
2019-05-01T00:20:02.283Z,9
2019-05-01T00:21:02.593Z,10
2019-05-01T00:22:01.737Z,10
2019-05-01T00:23:02.020Z,10
2019-05-01T00:24:02.299Z,10
2019-05-01T00:25:02.542Z,10
2019-05-01T00:26:01.698Z,11
2019-05-01T00:27:02.005Z,10
2019-05-01T00:28:02.194Z,10
2019-05-01T00:29:02.474Z,10
2019-05-01T00:30:01.645Z,10
2019-05-01T00:31:01.895Z,10
2019-05-01T00:32:02.196Z,11
2019-05-01T00:33:02.450Z,14
2019-05-01T00:34:01.710Z,14
2019-05-01T00:35:01.964Z,14
2019-05-01T00:36:02.142Z,14
2019-05-01T00:37:02.453Z,14
2019-05-01T00:38:01.632Z,11
2019-05-01T00:39:01.916Z,12
2019-05-01T00:40:02.150Z,12
2019-05-01T00:41:02.350Z,12
2019-05-01T00:42:02.543Z,12
2019-05-01T00:43:01.737Z,12
2019-05-01T00:44:01.989Z,8
2019-05-01T00:45:02.150Z,12
2019-05-01T00:46:02.413Z,12
2019-05-01T00:47:01.654Z,12
2019-05-01T00:48:01.837Z,12
2019-05-01T00:49:02.134Z,12
2019-05-01T00:50:02.325Z,9
2019-05-01T00:51:02.623Z,14
2019-05-01T00:52:01.733Z,14
2019-05-01T00:53:01.995Z,14
2019-05-01T00:54:02.190Z,14
2019-05-01T00:55:02.510Z,14
2019-05-01T00:56:01.727Z,5
2019-05-01T00:57:01.921Z,18
2019-05-01T00:58:02.113Z,18
2019-05-01T00:59:02.365Z,18
2019-05-01T01:00:07.631Z,18
2019-05-01T01:01:02.456Z,18
2019-05-01T01:02:01.717Z,9
2019-05-01T01:03:01.885Z,15
2019-05-01T01:04:02.091Z,15
2019-05-01T01:05:02.404Z,15
2019-05-01T01:06:02.605Z,15
2019-05-01T01:07:01.905Z,15
2019-05-01T01:08:02.070Z,9
2019-05-01T01:09:02.330Z,15
2019-05-01T01:10:02.610Z,15
2019-05-01T01:11:01.812Z,15
2019-05-01T01:12:02.099Z,15
2019-05-01T01:13:02.290Z,15
2019-05-01T01:14:02.511Z,11
2019-05-01T01:15:01.768Z,14
2019-05-01T01:16:02.088Z,14
2019-05-01T01:17:02.258Z,14
2019-05-01T01:18:02.427Z,14
2019-05-01T01:19:02.683Z,14
2019-05-01T01:20:01.851Z,11
2019-05-01T01:21:02.304Z,13
2019-05-01T01:22:02.552Z,13
2019-05-01T01:23:01.848Z,13
2019-05-01T01:24:02.091Z,13
2019-05-01T01:25:02.337Z,13
2019-05-01T01:26:02.582Z,6
2019-05-01T01:27:01.738Z,16
2019-05-01T01:28:02.077Z,16
2019-05-01T01:29:02.274Z,16
2019-05-01T01:30:02.469Z,16
2019-05-01T01:31:01.641Z,16
2019-05-01T01:32:02.137Z,6
2019-05-01T01:33:02.435Z,12
2019-05-01T01:34:01.685Z,12
2019-05-01T01:35:01.910Z,12
2019-05-01T01:36:02.157Z,12
2019-05-01T01:37:02.357Z,12
2019-05-01T01:38:02.639Z,15
2019-05-01T01:39:01.801Z,15
2019-05-01T01:40:02.131Z,15
2019-05-01T01:41:02.339Z,15
2019-05-01T01:42:02.525Z,15
2019-05-01T01:43:01.731Z,15
2019-05-01T01:44:02.083Z,12
2019-05-01T01:45:02.202Z,12
2019-05-01T01:46:02.411Z,12
2019-05-01T01:47:02.627Z,12
2019-05-01T01:48:01.830Z,12
2019-05-01T01:49:02.168Z,12
2019-05-01T01:50:02.393Z,9
2019-05-01T01:51:01.674Z,9
2019-05-01T01:52:01.897Z,9
2019-05-01T01:53:02.061Z,9
2019-05-01T01:54:02.223Z,9
2019-05-01T01:55:02.526Z,9
2019-05-01T01:56:01.758Z,12
2019-05-01T01:57:01.993Z,12
2019-05-01T01:58:02.276Z,12
2019-05-01T01:59:02.481Z,12
2019-05-01T02:00:02.702Z,12
2019-05-01T02:01:10.162Z,12
2019-05-01T02:02:02.132Z,15
2019-05-01T02:03:02.330Z,15
2019-05-01T02:04:02.571Z,15
2019-05-01T02:05:01.808Z,15
2019-05-01T02:06:02.115Z,15
2019-05-01T02:07:02.369Z,15
2019-05-01T02:08:02.508Z,13
2019-05-01T02:09:01.745Z,13
2019-05-01T02:10:01.991Z,13
2019-05-01T02:11:02.200Z,13
2019-05-01T02:12:02.413Z,13
2019-05-01T02:13:02.612Z,13
2019-05-01T02:14:01.843Z,13
2019-05-01T02:15:02.126Z,13
2019-05-01T02:16:02.353Z,13
2019-05-01T02:17:02.564Z,13
2019-05-01T02:18:01.676Z,13
2019-05-01T02:19:01.879Z,13
2019-05-01T02:20:02.135Z,13
2019-05-01T02:21:02.382Z,13
2019-05-01T02:22:02.517Z,13
2019-05-01T02:23:01.731Z,13
2019-05-01T02:24:01.964Z,13
2019-05-01T02:25:02.275Z,13
2019-05-01T02:26:06.083Z,15
2019-05-01T02:27:01.684Z,15
2019-05-01T02:28:01.950Z,15
2019-05-01T02:29:02.171Z,15
2019-05-01T02:30:02.426Z,15
2019-05-01T02:31:02.612Z,15
2019-05-01T02:32:01.815Z,15
2019-05-01T02:33:01.966Z,15
2019-05-01T02:34:02.204Z,15
2019-05-01T02:35:02.512Z,15
2019-05-01T02:36:01.676Z,15
2019-05-01T02:37:01.924Z,15
2019-05-01T02:38:02.094Z,8
2019-05-01T02:39:02.486Z,10
2019-05-01T02:40:02.651Z,10
2019-05-01T02:41:01.847Z,10
2019-05-01T02:42:02.108Z,10
2019-05-01T02:43:02.307Z,10
2019-05-01T02:44:02.457Z,17
2019-05-01T02:45:02.667Z,17
2019-05-01T02:46:01.907Z,17
2019-05-01T02:47:02.206Z,17
2019-05-01T02:48:02.510Z,17
2019-05-01T02:49:01.714Z,17
2019-05-01T02:50:01.993Z,16
2019-05-01T02:51:02.163Z,16
2019-05-01T02:52:02.461Z,16
2019-05-01T02:53:02.617Z,16
2019-05-01T02:54:01.799Z,16
2019-05-01T02:55:02.122Z,16
2019-05-01T02:56:02.246Z,13
2019-05-01T02:57:02.486Z,13
2019-05-01T02:58:01.704Z,13
2019-05-01T02:59:02.037Z,13
2019-05-01T03:00:02.280Z,13
2019-05-01T03:01:02.405Z,13
2019-05-01T03:02:01.683Z,16
2019-05-01T03:03:01.857Z,16
2019-05-01T03:04:02.167Z,16
2019-05-01T03:05:02.365Z,16
2019-05-01T03:06:02.595Z,16
2019-05-01T03:07:01.837Z,16
2019-05-01T03:08:02.065Z,17
2019-05-01T03:09:02.393Z,17
2019-05-01T03:10:02.443Z,17
2019-05-01T03:11:02.619Z,17
2019-05-01T03:12:01.843Z,17
2019-05-01T03:13:02.603Z,17
2019-05-01T03:14:01.853Z,16
2019-05-01T03:15:02.348Z,16
2019-05-01T03:16:02.294Z,16
2019-05-01T03:17:02.581Z,16
2019-05-01T03:18:01.804Z,16
2019-05-01T03:19:01.983Z,16
2019-05-01T03:20:02.344Z,13
2019-05-01T03:21:02.406Z,13
2019-05-01T03:22:01.740Z,13
2019-05-01T03:23:01.962Z,13
2019-05-01T03:24:02.212Z,13
2019-05-01T03:25:02.484Z,13
2019-05-01T03:26:01.648Z,17
2019-05-01T03:27:01.853Z,17
2019-05-01T03:28:02.136Z,17
2019-05-01T03:29:02.295Z,17
2019-05-01T03:30:02.629Z,17
2019-05-01T03:31:01.832Z,17
2019-05-01T03:32:19.901Z,16
2019-05-01T03:33:02.303Z,16
2019-05-01T03:34:02.474Z,16
2019-05-01T03:35:02.675Z,16
2019-05-01T03:36:01.916Z,16
2019-05-01T03:37:02.108Z,16
2019-05-01T03:38:02.424Z,17
2019-05-01T03:39:02.569Z,17
2019-05-01T03:40:03.208Z,17
2019-05-01T03:41:01.746Z,17
2019-05-01T03:42:01.939Z,17
2019-05-01T03:43:02.229Z,17
2019-05-01T03:44:02.374Z,19
2019-05-01T03:45:02.626Z,19
2019-05-01T03:46:01.823Z,19
2019-05-01T03:47:02.137Z,19
2019-05-01T03:48:02.357Z,19
2019-05-01T03:49:02.487Z,19
2019-05-01T03:50:01.795Z,18
2019-05-01T03:51:02.015Z,18
2019-05-01T03:52:02.241Z,18
2019-05-01T03:53:02.547Z,18
2019-05-01T03:54:01.661Z,18
2019-05-01T03:55:01.904Z,18
2019-05-01T03:56:02.035Z,16
2019-05-01T03:57:02.304Z,16
2019-05-01T03:58:02.565Z,16
2019-05-01T03:59:01.728Z,16
2019-05-01T04:00:04.430Z,16
2019-05-01T04:01:02.222Z,16
2019-05-01T04:02:02.532Z,18
2019-05-01T04:03:01.659Z,18
2019-05-01T04:04:01.856Z,18
2019-05-01T04:05:02.160Z,18
2019-05-01T04:06:02.301Z,18
2019-05-01T04:07:02.568Z,18
2019-05-01T04:08:01.671Z,16
2019-05-01T04:09:01.905Z,16
2019-05-01T04:10:02.177Z,16
2019-05-01T04:11:02.513Z,16
2019-05-01T04:12:02.636Z,16
2019-05-01T04:13:01.817Z,16
2019-05-01T04:14:02.019Z,21
2019-05-01T04:15:02.329Z,21
2019-05-01T04:16:02.631Z,21
2019-05-01T04:17:01.827Z,21
2019-05-01T04:18:02.022Z,21
2019-05-01T04:19:02.330Z,21
2019-05-01T04:20:02.543Z,16
2019-05-01T04:21:01.784Z,16
2019-05-01T04:22:01.950Z,16
2019-05-01T04:23:02.150Z,16
2019-05-01T04:24:02.380Z,16
2019-05-01T04:25:02.684Z,16
2019-05-01T04:26:01.947Z,15
2019-05-01T04:27:02.090Z,15
2019-05-01T04:28:02.362Z,15
2019-05-01T04:29:02.555Z,15
2019-05-01T04:30:02.023Z,15
2019-05-01T04:31:02.018Z,15
2019-05-01T04:32:02.161Z,20
2019-05-01T04:33:02.339Z,20
2019-05-01T04:34:02.590Z,20
2019-05-01T04:35:01.834Z,20
2019-05-01T04:36:02.169Z,20
2019-05-01T04:37:02.420Z,20
2019-05-01T04:38:02.642Z,20
2019-05-01T04:39:01.849Z,20
2019-05-01T04:40:02.190Z,20
2019-05-01T04:41:02.359Z,20
2019-05-01T04:42:02.579Z,20
2019-05-01T04:43:01.801Z,20
2019-05-01T04:44:02.078Z,20
2019-05-01T04:45:02.285Z,20
2019-05-01T04:46:02.471Z,20
2019-05-01T04:47:01.723Z,20
2019-05-01T04:48:01.918Z,20
2019-05-01T04:49:02.153Z,20
2019-05-01T04:50:02.428Z,19
2019-05-01T04:51:02.579Z,19
2019-05-01T04:52:01.836Z,19
2019-05-01T04:53:02.014Z,19
2019-05-01T04:54:02.303Z,19
2019-05-01T04:55:02.491Z,19
2019-05-01T04:56:01.723Z,19
2019-05-01T04:57:01.860Z,19
2019-05-01T04:58:02.088Z,19
2019-05-01T04:59:02.330Z,19
2019-05-01T05:00:03.844Z,19
2019-05-01T05:01:01.679Z,19
2019-05-01T05:02:01.913Z,20
2019-05-01T05:03:05.702Z,20
2019-05-01T05:04:02.339Z,20
2019-05-01T05:05:02.593Z,20
2019-05-01T05:06:01.776Z,20
2019-05-01T05:07:02.139Z,20
2019-05-01T05:08:02.251Z,17
2019-05-01T05:09:02.435Z,17
2019-05-01T05:10:01.623Z,17
2019-05-01T05:11:02.014Z,17
2019-05-01T05:12:02.230Z,17
2019-05-01T05:13:02.360Z,17
2019-05-01T05:14:02.640Z,16
2019-05-01T05:15:01.870Z,16
2019-05-01T05:16:02.064Z,16
2019-05-01T05:17:02.283Z,16
2019-05-01T05:18:02.436Z,16
2019-05-01T05:19:01.676Z,16
2019-05-01T05:20:02.070Z,20
2019-05-01T05:21:02.223Z,20
2019-05-01T05:22:02.486Z,20
2019-05-01T05:23:01.750Z,20
2019-05-01T05:24:02.034Z,20
2019-05-01T05:25:02.282Z,20
2019-05-01T05:26:02.381Z,16
2019-05-01T05:27:01.654Z,16
2019-05-01T05:28:01.909Z,16
2019-05-01T05:29:02.116Z,16
2019-05-01T05:30:02.465Z,16
2019-05-01T05:31:02.612Z,16
2019-05-01T05:32:01.768Z,20
2019-05-01T05:33:01.960Z,20
2019-05-01T05:34:02.162Z,20
2019-05-01T05:35:02.453Z,20
2019-05-01T05:36:01.640Z,20
2019-05-01T05:37:01.824Z,20
2019-05-01T05:38:02.092Z,16
2019-05-01T05:39:02.348Z,16
2019-05-01T05:40:02.636Z,16
2019-05-01T05:41:01.824Z,16
2019-05-01T05:42:02.046Z,16
2019-05-01T05:43:02.276Z,16
2019-05-01T05:44:02.480Z,16
2019-05-01T05:45:01.842Z,16
2019-05-01T05:46:02.014Z,16
2019-05-01T05:47:02.234Z,16
2019-05-01T05:48:02.018Z,16
2019-05-01T05:49:02.220Z,16
2019-05-01T05:50:02.498Z,21
2019-05-01T05:51:01.768Z,21
2019-05-01T05:52:01.942Z,21
2019-05-01T05:53:02.196Z,21
2019-05-01T05:54:02.492Z,21
2019-05-01T05:55:01.654Z,21
2019-05-01T05:56:01.910Z,16
2019-05-01T05:57:02.118Z,16
2019-05-01T05:58:02.332Z,16
2019-05-01T05:59:02.509Z,16
2019-05-01T06:00:01.786Z,16
2019-05-01T06:01:02.043Z,16
2019-05-01T06:02:02.261Z,20
2019-05-01T06:03:02.498Z,20
2019-05-01T06:04:01.857Z,20
2019-05-01T06:05:02.037Z,20
2019-05-01T06:06:02.247Z,20
2019-05-01T06:07:02.481Z,20
2019-05-01T06:08:01.724Z,15
2019-05-01T06:09:02.208Z,15
2019-05-01T06:10:02.425Z,15
2019-05-01T06:11:01.703Z,15
2019-05-01T06:12:10.109Z,15
2019-05-01T06:13:02.174Z,15
2019-05-01T06:14:02.360Z,17
2019-05-01T06:15:07.810Z,17
2019-05-01T06:16:01.925Z,17
2019-05-01T06:17:02.132Z,17
2019-05-01T06:18:05.909Z,17
2019-05-01T06:19:02.525Z,17
2019-05-01T06:20:01.874Z,15
2019-05-01T06:21:04.102Z,15
2019-05-01T06:22:10.671Z,15
2019-05-01T06:23:02.494Z,15
2019-05-01T06:24:07.243Z,15
2019-05-01T06:25:02.002Z,15
2019-05-01T06:26:03.050Z,13
2019-05-01T06:27:02.296Z,13
2019-05-01T06:28:02.559Z,13
2019-05-01T06:29:02.423Z,13
2019-05-01T06:30:02.011Z,13
2019-05-01T06:31:02.257Z,13
2019-05-01T06:32:02.525Z,17
2019-05-01T06:33:09.681Z,17
2019-05-01T06:34:01.870Z,17
2019-05-01T06:35:04.805Z,17
2019-05-01T06:36:13.264Z,17
2019-05-01T06:37:02.510Z,17
2019-05-01T06:38:02.701Z,14
2019-05-01T06:39:01.992Z,14
2019-05-01T06:40:02.243Z,14
2019-05-01T06:41:02.481Z,14
2019-05-01T06:42:01.688Z,14
2019-05-01T06:43:02.023Z,14
2019-05-01T06:44:07.384Z,13
2019-05-01T06:45:02.503Z,13
2019-05-01T06:46:01.805Z,13
2019-05-01T06:47:05.368Z,13
2019-05-01T06:48:02.123Z,13
2019-05-01T06:49:02.274Z,13
2019-05-01T06:50:07.687Z,16
2019-05-01T06:51:02.734Z,16
2019-05-01T06:52:02.231Z,16
2019-05-01T06:53:06.705Z,16
2019-05-01T06:54:02.657Z,16
2019-05-01T06:55:01.834Z,16
2019-05-01T06:56:02.139Z,17
2019-05-01T06:57:02.298Z,17
2019-05-01T06:58:02.501Z,17
2019-05-01T06:59:01.779Z,17
2019-05-01T07:00:09.573Z,17
2019-05-01T07:01:02.562Z,17
2019-05-01T07:02:01.762Z,14
2019-05-01T07:03:05.954Z,14
2019-05-01T07:04:04.386Z,14
2019-05-01T07:05:02.373Z,14
2019-05-01T07:06:14.672Z,14
2019-05-01T07:07:06.919Z,14
2019-05-01T07:08:02.108Z,13
2019-05-01T07:09:02.343Z,13
2019-05-01T07:10:02.668Z,13
2019-05-01T07:11:01.816Z,13
2019-05-01T07:12:02.090Z,13
2019-05-01T07:13:06.716Z,13
2019-05-01T07:14:02.471Z,13
2019-05-01T07:15:01.863Z,13
2019-05-01T07:16:03.669Z,13
2019-05-01T07:17:02.119Z,13
2019-05-01T07:18:02.432Z,13
2019-05-01T07:19:07.185Z,13
2019-05-01T07:20:02.010Z,10
2019-05-01T07:21:02.187Z,10
2019-05-01T07:22:07.485Z,10
2019-05-01T07:23:02.633Z,10
2019-05-01T07:24:01.873Z,10
2019-05-01T07:25:05.459Z,10
2019-05-01T07:26:02.398Z,10
2019-05-01T07:27:02.540Z,10
2019-05-01T07:28:01.758Z,10
2019-05-01T07:29:11.050Z,10
2019-05-01T07:30:02.300Z,10
2019-05-01T07:31:05.653Z,10
2019-05-01T07:32:07.560Z,13
2019-05-01T07:33:01.826Z,13
2019-05-01T07:34:02.046Z,13
2019-05-01T07:35:04.180Z,13
2019-05-01T07:36:02.649Z,13
2019-05-01T07:37:01.758Z,13
2019-05-01T07:38:03.462Z,15
2019-05-01T07:39:02.276Z,15
2019-05-01T07:40:02.552Z,15
2019-05-01T07:41:05.186Z,15
2019-05-01T07:42:02.109Z,15
2019-05-01T07:43:02.156Z,15
2019-05-01T07:44:02.380Z,13
2019-05-01T07:45:08.651Z,13
2019-05-01T07:46:02.776Z,13
2019-05-01T07:47:02.110Z,13
2019-05-01T07:48:06.827Z,13
2019-05-01T07:49:02.627Z,13
2019-05-01T07:50:01.809Z,12
2019-05-01T07:51:08.717Z,12
2019-05-01T07:52:02.147Z,12
2019-05-01T07:53:02.332Z,12
2019-05-01T07:54:08.920Z,12
2019-05-01T07:55:01.934Z,12
2019-05-01T07:56:02.109Z,9
2019-05-01T07:57:05.039Z,9
2019-05-01T07:58:02.539Z,9
2019-05-01T07:59:01.764Z,9
2019-05-01T08:00:08.776Z,9
2019-05-01T08:01:02.136Z,9
2019-05-01T08:02:02.449Z,13
2019-05-01T08:03:07.373Z,13
2019-05-01T08:04:01.802Z,13
2019-05-01T08:05:10.290Z,13
2019-05-01T08:06:02.306Z,13
2019-05-01T08:07:02.639Z,13
2019-05-01T08:08:07.953Z,9
2019-05-01T08:09:02.015Z,9
2019-05-01T08:10:02.235Z,9
2019-05-01T08:11:10.263Z,9
2019-05-01T08:12:01.736Z,9
2019-05-01T08:13:02.287Z,9
2019-05-01T08:14:11.991Z,10
2019-05-01T08:15:02.482Z,10
2019-05-01T08:16:08.649Z,10
2019-05-01T08:17:01.925Z,10
2019-05-01T08:18:02.204Z,10
2019-05-01T08:19:05.894Z,10
2019-05-01T08:20:02.623Z,8
2019-05-01T08:21:01.858Z,8
2019-05-01T08:22:03.453Z,8
2019-05-01T08:23:02.366Z,8
2019-05-01T08:24:02.572Z,8
2019-05-01T08:25:01.864Z,8
2019-05-01T08:26:09.145Z,10
2019-05-01T08:27:02.308Z,10
2019-05-01T08:28:02.533Z,10
2019-05-01T08:29:08.050Z,10
2019-05-01T08:30:01.921Z,10
2019-05-01T08:31:02.117Z,10
2019-05-01T08:32:04.834Z,10
2019-05-01T08:33:02.612Z,10
2019-05-01T08:34:01.859Z,10
2019-05-01T08:35:02.772Z,10
2019-05-01T08:36:02.295Z,10
2019-05-01T08:37:02.452Z,10
2019-05-01T08:38:01.767Z,13
2019-05-01T08:39:09.324Z,13
2019-05-01T08:40:02.218Z,13
2019-05-01T08:41:02.404Z,13
2019-05-01T08:42:07.194Z,13
2019-05-01T08:43:01.828Z,13
2019-05-01T08:44:02.100Z,8
2019-05-01T08:45:07.063Z,8
2019-05-01T08:46:02.574Z,8
2019-05-01T08:47:01.759Z,8
2019-05-01T08:48:01.954Z,8
2019-05-01T08:49:02.240Z,8
2019-05-01T08:50:02.535Z,10
2019-05-01T08:51:01.649Z,10
2019-05-01T08:52:13.684Z,10
2019-05-01T08:53:02.084Z,10
2019-05-01T08:54:02.263Z,10
2019-05-01T08:55:09.505Z,10
2019-05-01T08:56:01.633Z,9
2019-05-01T08:57:01.876Z,9
2019-05-01T08:58:02.197Z,9
2019-05-01T08:59:02.314Z,9
2019-05-01T09:00:06.000Z,9
2019-05-01T09:01:01.901Z,9
2019-05-01T09:02:10.127Z,8
2019-05-01T09:03:13.710Z,8
2019-05-01T09:04:13.589Z,8
2019-05-01T09:05:07.155Z,8
2019-05-01T09:06:01.959Z,8
2019-05-01T09:07:02.206Z,8
2019-05-01T09:08:02.454Z,9
2019-05-01T09:09:09.919Z,9
2019-05-01T09:10:01.830Z,9
2019-05-01T09:11:02.753Z,9
2019-05-01T09:12:02.328Z,9
2019-05-01T09:13:02.535Z,9
2019-05-01T09:14:01.672Z,8
2019-05-01T09:15:01.951Z,8
2019-05-01T09:16:02.141Z,8
2019-05-01T09:17:02.385Z,8
2019-05-01T09:18:02.640Z,8
2019-05-01T09:19:01.789Z,8
2019-05-01T09:20:02.222Z,10
2019-05-01T09:21:02.443Z,10
2019-05-01T09:22:02.604Z,10
2019-05-01T09:23:01.910Z,10
2019-05-01T09:24:02.091Z,10
2019-05-01T09:25:02.411Z,10
2019-05-01T09:26:15.942Z,12
2019-05-01T09:27:01.676Z,12
2019-05-01T09:28:06.123Z,12
2019-05-01T09:29:02.165Z,12
2019-05-01T09:30:04.869Z,12
2019-05-01T09:31:03.806Z,12
2019-05-01T09:32:10.500Z,10
2019-05-01T09:33:02.119Z,10
2019-05-01T09:34:02.348Z,10
2019-05-01T09:35:16.350Z,10
2019-05-01T09:36:01.984Z,10
2019-05-01T09:37:02.156Z,10
2019-05-01T09:38:02.388Z,10
2019-05-01T09:39:02.580Z,10
2019-05-01T09:40:09.367Z,10
2019-05-01T09:41:02.015Z,10
2019-05-01T09:42:02.106Z,10
2019-05-01T09:43:02.381Z,10
2019-05-01T09:44:11.980Z,9
2019-05-01T09:45:01.851Z,9
2019-05-01T09:46:02.090Z,9
2019-05-01T09:47:02.352Z,9
2019-05-01T09:48:02.540Z,9
2019-05-01T09:49:01.868Z,9
2019-05-01T09:50:02.071Z,9
2019-05-01T09:51:06.676Z,9
2019-05-01T09:52:02.408Z,9
2019-05-01T09:53:01.613Z,9
2019-05-01T09:54:10.964Z,9
2019-05-01T09:55:02.054Z,9
2019-05-01T09:56:07.778Z,12
2019-05-01T09:57:02.505Z,12
2019-05-01T09:58:03.296Z,12
2019-05-01T09:59:01.962Z,12
2019-05-01T10:00:03.847Z,12
2019-05-01T10:01:01.729Z,12
2019-05-01T10:02:08.986Z,10
2019-05-01T10:03:02.220Z,10
2019-05-01T10:04:06.996Z,10
2019-05-01T10:05:08.113Z,10
2019-05-01T10:06:01.790Z,10
2019-05-01T10:07:02.685Z,10
2019-05-01T10:08:05.708Z,10
2019-05-01T10:09:02.440Z,10
2019-05-01T10:10:02.701Z,10
2019-05-01T10:11:07.100Z,10
2019-05-01T10:12:02.038Z,10
2019-05-01T10:13:02.264Z,10
2019-05-01T10:14:04.505Z,8
2019-05-01T10:15:01.772Z,8
2019-05-01T10:16:01.937Z,8
2019-05-01T10:17:02.159Z,8
2019-05-01T10:18:02.373Z,8
2019-05-01T10:19:02.656Z,8
2019-05-01T10:20:01.819Z,9
2019-05-01T10:21:02.113Z,9
2019-05-01T10:22:03.985Z,9
2019-05-01T10:23:02.531Z,9
2019-05-01T10:24:01.797Z,9
2019-05-01T10:25:02.030Z,9
2019-05-01T10:26:02.280Z,9
2019-05-01T10:27:02.490Z,9
2019-05-01T10:28:01.689Z,9
2019-05-01T10:29:01.887Z,9
2019-05-01T10:30:03.396Z,9
2019-05-01T10:31:02.481Z,9
2019-05-01T10:32:02.584Z,9
2019-05-01T10:33:01.786Z,9
2019-05-01T10:34:09.052Z,9
2019-05-01T10:35:02.228Z,9
2019-05-01T10:36:02.565Z,9
2019-05-01T10:37:01.665Z,9
2019-05-01T10:38:09.726Z,9
2019-05-01T10:39:02.168Z,9
2019-05-01T10:40:02.477Z,9
2019-05-01T10:41:09.449Z,9
2019-05-01T10:42:01.906Z,9
2019-05-01T10:43:02.149Z,9
2019-05-01T10:44:02.372Z,8
2019-05-01T10:45:02.653Z,8
2019-05-01T10:46:01.908Z,8
2019-05-01T10:47:02.592Z,8
2019-05-01T10:48:02.290Z,8
2019-05-01T10:49:02.485Z,8
2019-05-01T10:50:01.695Z,6
2019-05-01T10:51:01.987Z,6
2019-05-01T10:52:14.804Z,6
2019-05-01T10:53:02.362Z,6
2019-05-01T10:54:02.589Z,6
2019-05-01T10:55:02.115Z,6
2019-05-01T10:56:02.133Z,10
2019-05-01T10:57:04.813Z,10
2019-05-01T10:58:03.814Z,10
2019-05-01T10:59:01.739Z,10
2019-05-01T11:00:06.354Z,10
2019-05-01T11:01:02.211Z,10
2019-05-01T11:02:02.377Z,9
2019-05-01T11:03:02.527Z,9
2019-05-01T11:04:01.718Z,9
2019-05-01T11:05:01.990Z,9
2019-05-01T11:06:02.222Z,9
2019-05-01T11:07:02.418Z,9
2019-05-01T11:08:01.640Z,9
2019-05-01T11:09:01.799Z,9
2019-05-01T11:10:02.090Z,9
2019-05-01T11:11:02.389Z,9
2019-05-01T11:12:02.571Z,9
2019-05-01T11:13:02.295Z,9
2019-05-01T11:14:02.533Z,8
2019-05-01T11:15:01.957Z,8
2019-05-01T11:16:02.158Z,8
2019-05-01T11:17:02.343Z,8
2019-05-01T11:18:02.507Z,8
2019-05-01T11:19:01.686Z,8
2019-05-01T11:20:01.889Z,10
2019-05-01T11:21:02.136Z,10
2019-05-01T11:22:02.420Z,10
2019-05-01T11:23:02.547Z,10
2019-05-01T11:24:01.865Z,10
2019-05-01T11:25:02.123Z,10
2019-05-01T11:26:02.386Z,9
2019-05-01T11:27:02.642Z,9
2019-05-01T11:28:01.835Z,9
2019-05-01T11:29:02.060Z,9
2019-05-01T11:30:02.349Z,9
2019-05-01T11:31:02.580Z,9
2019-05-01T11:32:01.743Z,6
2019-05-01T11:33:01.944Z,6
2019-05-01T11:34:02.139Z,6
2019-05-01T11:35:02.400Z,6
2019-05-01T11:36:10.091Z,6
2019-05-01T11:37:01.844Z,6
2019-05-01T11:38:02.065Z,9
2019-05-01T11:39:02.307Z,9
2019-05-01T11:40:02.588Z,9
2019-05-01T11:41:01.881Z,9
2019-05-01T11:42:02.132Z,9
2019-05-01T11:43:03.139Z,9
2019-05-01T11:44:02.518Z,5
2019-05-01T11:45:01.809Z,5
2019-05-01T11:46:01.963Z,5
2019-05-01T11:47:02.264Z,5
2019-05-01T11:48:02.408Z,5
2019-05-01T11:49:02.570Z,5
2019-05-01T11:50:02.016Z,9
2019-05-01T11:51:02.150Z,9
2019-05-01T11:52:02.392Z,9
2019-05-01T11:53:02.660Z,9
2019-05-01T11:54:02.655Z,9
2019-05-01T11:55:02.127Z,9
2019-05-01T11:56:02.275Z,9
2019-05-01T11:57:02.523Z,9
2019-05-01T11:58:01.770Z,9
2019-05-01T11:59:01.995Z,9
2019-05-01T12:00:04.394Z,9
2019-05-01T12:01:02.276Z,9
2019-05-01T12:02:02.899Z,6
2019-05-01T12:03:01.721Z,6
2019-05-01T12:04:01.971Z,6
2019-05-01T12:05:02.289Z,6
2019-05-01T12:06:02.434Z,6
2019-05-01T12:07:02.641Z,6
2019-05-01T12:08:01.869Z,6
2019-05-01T12:09:02.067Z,6
2019-05-01T12:10:02.323Z,6
2019-05-01T12:11:02.515Z,6
2019-05-01T12:12:01.767Z,6
2019-05-01T12:13:02.060Z,6
2019-05-01T12:14:02.279Z,9
2019-05-01T12:15:02.572Z,9
2019-05-01T12:16:01.695Z,9
2019-05-01T12:17:01.967Z,9
2019-05-01T12:18:02.137Z,9
2019-05-01T12:19:02.437Z,9
2019-05-01T12:20:01.801Z,9
2019-05-01T12:21:01.903Z,9
2019-05-01T12:22:02.232Z,9
2019-05-01T12:23:02.420Z,9
2019-05-01T12:24:02.558Z,9
2019-05-01T12:25:01.937Z,9
2019-05-01T12:26:02.060Z,6
2019-05-01T12:27:02.201Z,6
2019-05-01T12:28:02.520Z,6
2019-05-01T12:29:01.689Z,6
2019-05-01T12:30:01.950Z,6
2019-05-01T12:31:02.062Z,6
2019-05-01T12:32:02.356Z,10
2019-05-01T12:33:02.501Z,10
2019-05-01T12:34:01.732Z,10
2019-05-01T12:35:01.872Z,10
2019-05-01T12:36:02.061Z,10
2019-05-01T12:37:02.352Z,10
2019-05-01T12:38:02.555Z,6
2019-05-01T12:39:01.727Z,6
2019-05-01T12:40:01.919Z,6
2019-05-01T12:41:02.066Z,6
2019-05-01T12:42:02.384Z,6
2019-05-01T12:43:02.492Z,6
2019-05-01T12:44:01.818Z,7
2019-05-01T12:45:02.002Z,7
2019-05-01T12:46:02.266Z,7
2019-05-01T12:47:02.485Z,7
2019-05-01T12:48:01.765Z,7
2019-05-01T12:49:02.036Z,7
2019-05-01T12:50:02.282Z,6
2019-05-01T12:51:02.487Z,6
2019-05-01T12:52:11.154Z,6
2019-05-01T12:53:01.888Z,6
2019-05-01T12:54:02.191Z,6
2019-05-01T12:55:02.460Z,6
2019-05-01T12:56:01.732Z,5
2019-05-01T12:57:02.016Z,5
2019-05-01T12:58:02.271Z,5
2019-05-01T12:59:02.409Z,5
2019-05-01T13:00:09.523Z,5
2019-05-01T13:01:01.824Z,5
2019-05-01T13:02:02.231Z,6
2019-05-01T13:03:02.402Z,6
2019-05-01T13:04:01.638Z,6
2019-05-01T13:05:01.958Z,6
2019-05-01T13:06:02.125Z,6
2019-05-01T13:07:02.398Z,6
2019-05-01T13:08:02.576Z,6
2019-05-01T13:09:01.855Z,6
2019-05-01T13:10:02.147Z,6
2019-05-01T13:11:02.327Z,6
2019-05-01T13:12:02.569Z,6
2019-05-01T13:13:01.953Z,6
2019-05-01T13:14:02.084Z,6
2019-05-01T13:15:02.374Z,6
2019-05-01T13:16:02.539Z,6
2019-05-01T13:17:01.838Z,6
2019-05-01T13:18:02.153Z,6
2019-05-01T13:19:02.340Z,6
2019-05-01T13:20:02.563Z,3
2019-05-01T13:21:01.685Z,3
2019-05-01T13:22:01.954Z,3
2019-05-01T13:23:02.246Z,3
2019-05-01T13:24:02.413Z,3
2019-05-01T13:25:01.741Z,3
2019-05-01T13:26:01.937Z,6
2019-05-01T13:27:02.171Z,6
2019-05-01T13:28:02.429Z,6
2019-05-01T13:29:02.590Z,6
2019-05-01T13:30:01.880Z,6
2019-05-01T13:31:02.055Z,6
2019-05-01T13:32:02.217Z,5
2019-05-01T13:33:02.484Z,5
2019-05-01T13:34:01.711Z,5
2019-05-01T13:35:01.893Z,5
2019-05-01T13:36:02.145Z,5
2019-05-01T13:37:03.779Z,5
2019-05-01T13:38:01.967Z,3
2019-05-01T13:39:02.207Z,3
2019-05-01T13:40:02.459Z,3
2019-05-01T13:41:01.632Z,3
2019-05-01T13:42:01.944Z,3
2019-05-01T13:43:02.090Z,3
2019-05-01T13:44:02.416Z,6
2019-05-01T13:45:02.559Z,6
2019-05-01T13:46:01.767Z,6
2019-05-01T13:47:01.984Z,6
2019-05-01T13:48:02.222Z,6
2019-05-01T13:49:02.376Z,6
2019-05-01T13:50:02.652Z,6
2019-05-01T13:51:01.938Z,6
2019-05-01T13:52:02.159Z,6
2019-05-01T13:53:02.326Z,6
2019-05-01T13:54:02.548Z,6
2019-05-01T13:55:02.154Z,6
2019-05-01T13:56:02.152Z,5
2019-05-01T13:57:02.387Z,5
2019-05-01T13:58:02.562Z,5
2019-05-01T13:59:01.773Z,5
2019-05-01T14:00:02.297Z,5
2019-05-01T14:01:02.038Z,5
2019-05-01T14:02:02.243Z,3
2019-05-01T14:03:02.485Z,3
2019-05-01T14:04:01.739Z,3
2019-05-01T14:05:02.201Z,3
2019-05-01T14:06:02.275Z,3
2019-05-01T14:07:17.106Z,3
2019-05-01T14:08:01.665Z,5
2019-05-01T14:09:01.985Z,5
2019-05-01T14:10:02.192Z,5
2019-05-01T14:11:02.422Z,5
2019-05-01T14:12:01.794Z,5
2019-05-01T14:13:01.950Z,5
2019-05-01T14:14:02.195Z,6
2019-05-01T14:15:02.423Z,6
2019-05-01T14:16:01.642Z,6
2019-05-01T14:17:02.061Z,6
2019-05-01T14:18:02.112Z,6
2019-05-01T14:19:02.364Z,6
2019-05-01T14:20:02.703Z,5
2019-05-01T14:21:01.879Z,5
2019-05-01T14:22:02.193Z,5
2019-05-01T14:23:02.394Z,5
2019-05-01T14:24:02.543Z,5
2019-05-01T14:25:01.775Z,5
2019-05-01T14:26:01.976Z,5